createdAt,value
2022-11-02T00:01:21.818Z,21.90
2022-11-02T00:03:49.926Z,23.43
2022-11-02T00:06:17.393Z,26.23
2022-11-02T00:08:44.897Z,25.97
2022-11-02T00:11:12.267Z,27.93
2022-11-02T00:13:39.653Z,27.97
2022-11-02T00:16:11.892Z,26.60
2022-11-02T00:18:39.970Z,26.87
2022-11-02T00:21:07.565Z,32.37
2022-11-02T00:23:35.230Z,27.53
2022-11-02T00:26:03.448Z,33.70
2022-11-02T00:28:32.047Z,36.83
2022-11-02T00:30:59.819Z,34.07
2022-11-02T00:33:27.360Z,31.47
2022-11-02T00:35:55.963Z,33.27
2022-11-02T00:38:23.323Z,41.37
2022-11-02T00:40:50.734Z,43.90
2022-11-02T00:43:18.355Z,38.43
2022-11-02T00:45:46.111Z,36.87
2022-11-02T00:48:14.594Z,36.87
2022-11-02T00:50:42.132Z,35.07
2022-11-02T00:53:09.416Z,31.43
2022-11-02T00:55:36.725Z,36.30
2022-11-02T00:58:04.556Z,34.13
2022-11-02T01:00:32.486Z,39.67
2022-11-02T01:03:03.419Z,41.40
2022-11-02T01:05:30.758Z,40.33
2022-11-02T01:07:58.063Z,36.33
2022-11-02T01:10:26.729Z,32.60
2022-11-02T01:12:54.167Z,38.90
2022-11-02T01:15:21.518Z,43.60
2022-11-02T01:17:48.827Z,35.97
2022-11-02T01:20:16.117Z,36.27
2022-11-02T01:22:43.980Z,31.27
2022-11-02T01:25:11.351Z,34.00
2022-11-02T01:27:38.807Z,35.90
2022-11-02T01:30:06.677Z,33.80
2022-11-02T01:32:33.974Z,35.27
2022-11-02T01:35:03.051Z,34.90
2022-11-02T01:37:30.274Z,29.97
2022-11-02T01:39:57.636Z,32.20
2022-11-02T01:42:28.577Z,29.73
2022-11-02T01:44:55.960Z,32.00
2022-11-02T01:47:31.799Z,31.47
2022-11-02T01:50:24.749Z,30.17
2022-11-02T01:52:52.620Z,29.03
2022-11-02T01:55:25.209Z,34.67
2022-11-02T01:57:57.975Z,28.53
2022-11-02T02:00:25.273Z,31.30
2022-11-02T02:03:13.011Z,31.20
2022-11-02T02:05:56.380Z,33.40
2022-11-02T02:08:25.891Z,31.67
2022-11-02T02:10:58.732Z,26.07
2022-11-02T02:13:28.121Z,32.90
2022-11-02T02:16:07.604Z,29.43
2022-11-02T02:18:49.002Z,29.53
2022-11-02T02:21:48.134Z,27.13
2022-11-02T02:24:35.056Z,30.50
2022-11-02T02:27:08.827Z,28.97
2022-11-02T02:30:09.884Z,30.50
2022-11-02T02:32:44.507Z,27.30
2022-11-02T02:35:29.082Z,25.47
2022-11-02T02:38:01.294Z,27.83
2022-11-02T02:40:35.248Z,29.23
2022-11-02T02:43:34.487Z,26.73
2022-11-02T02:46:14.941Z,26.97
2022-11-02T02:48:46.974Z,27.23
2022-11-02T02:51:31.376Z,28.63
2022-11-02T02:54:13.027Z,27.90
2022-11-02T02:56:50.237Z,26.33
2022-11-02T02:59:34.520Z,25.90
2022-11-02T03:02:05.673Z,25.90
2022-11-02T03:04:33.255Z,24.97
2022-11-02T03:07:01.992Z,24.20
2022-11-02T03:09:38.821Z,27.70
2022-11-02T03:12:50.910Z,21.50
2022-11-02T03:15:25.533Z,20.80
2022-11-02T03:18:12.419Z,23.93
2022-11-02T03:21:03.839Z,20.93
2022-11-02T03:23:35.115Z,19.90
2022-11-02T03:26:30.231Z,19.60
2022-11-02T03:29:00.524Z,18.77
2022-11-02T03:31:45.703Z,18.20
2022-11-02T03:34:41.301Z,18.53
2022-11-02T03:37:31.694Z,17.73
2022-11-02T03:40:04.432Z,15.93
2022-11-02T03:42:35.051Z,15.77
2022-11-02T03:45:11.707Z,15.80
2022-11-02T03:47:40.583Z,17.37
2022-11-02T03:50:09.702Z,17.87
2022-11-02T03:52:41.257Z,15.97
2022-11-02T03:55:21.177Z,18.73
2022-11-02T03:57:51.313Z,19.43
2022-11-02T04:00:21.900Z,19.10
2022-11-02T04:02:53.579Z,18.10
2022-11-02T04:05:27.426Z,18.13
2022-11-02T04:08:14.787Z,19.27
2022-11-02T04:11:02.251Z,18.47
2022-11-02T04:13:48.966Z,18.27
2022-11-02T04:16:16.931Z,19.17
2022-11-02T04:19:03.622Z,18.83
2022-11-02T04:21:32.010Z,24.40
2022-11-02T04:24:17.631Z,23.73
2022-11-02T04:26:44.902Z,20.07
2022-11-02T04:29:12.764Z,18.07
2022-11-02T04:31:40.112Z,15.93
2022-11-02T04:34:07.428Z,22.97
2022-11-02T04:36:34.853Z,18.43
2022-11-02T04:39:02.215Z,19.47
2022-11-02T04:41:44.686Z,22.93
2022-11-02T04:44:14.877Z,22.00
2022-11-02T04:46:43.759Z,21.73
2022-11-02T04:49:12.105Z,18.37
2022-11-02T04:51:47.200Z,24.27
2022-11-02T04:54:17.166Z,19.10
2022-11-02T04:56:44.422Z,20.37
2022-11-02T04:59:11.850Z,21.60
2022-11-02T05:01:39.403Z,19.83
2022-11-02T05:04:06.888Z,22.33
2022-11-02T05:06:34.140Z,20.90
2022-11-02T05:09:01.397Z,19.67
2022-11-02T05:11:28.772Z,20.33
2022-11-02T05:13:56.047Z,18.00
2022-11-02T05:16:23.386Z,23.87
2022-11-02T05:18:51.247Z,23.17
2022-11-02T05:21:18.504Z,20.63
2022-11-02T05:23:46.649Z,22.17
2022-11-02T05:26:14.650Z,21.43
2022-11-02T05:28:42.047Z,20.37
2022-11-02T05:31:09.532Z,20.93
2022-11-02T05:33:37.076Z,21.07
2022-11-02T05:36:04.706Z,21.53
2022-11-02T05:38:32.159Z,23.60
2022-11-02T05:41:00.543Z,25.87
2022-11-02T05:43:28.151Z,21.63
2022-11-02T05:46:00.828Z,25.23
2022-11-02T05:48:31.057Z,22.47
2022-11-02T05:51:00.472Z,25.90
2022-11-02T05:53:31.970Z,28.20
2022-11-02T05:56:00.616Z,22.27
2022-11-02T05:58:28.909Z,24.70
2022-11-02T06:01:00.682Z,21.00
2022-11-02T06:03:28.347Z,22.60
2022-11-02T06:06:03.764Z,21.50
2022-11-02T06:08:36.069Z,22.53
2022-11-02T06:11:11.495Z,23.00
2022-11-02T06:13:39.309Z,24.37
2022-11-02T06:16:09.809Z,25.67
2022-11-02T06:18:38.780Z,21.70
2022-11-02T06:21:06.437Z,24.20
2022-11-02T06:23:34.474Z,23.37
2022-11-02T06:26:02.877Z,24.43
2022-11-02T06:28:31.276Z,25.50
2022-11-02T06:30:59.629Z,20.93
2022-11-02T06:33:27.286Z,26.70
2022-11-02T06:35:55.517Z,24.37
2022-11-02T06:38:22.943Z,25.03
2022-11-02T06:41:06.185Z,22.97
2022-11-02T06:43:34.732Z,21.77
2022-11-02T06:46:02.209Z,20.27
2022-11-02T06:48:34.655Z,21.00
2022-11-02T06:51:04.033Z,23.80
2022-11-02T06:53:31.680Z,23.30
2022-11-02T06:56:00.491Z,20.77
2022-11-02T06:58:28.206Z,21.13
2022-11-02T07:01:01.553Z,24.90
2022-11-02T07:03:29.703Z,23.90
2022-11-02T07:05:57.329Z,21.27
2022-11-02T07:08:25.705Z,18.80
2022-11-02T07:10:52.995Z,22.67
2022-11-02T07:13:20.729Z,19.90
2022-11-02T07:15:48.086Z,20.03
2022-11-02T07:18:15.599Z,20.60
2022-11-02T07:20:43.252Z,18.97
2022-11-02T07:23:10.970Z,19.80
2022-11-02T07:25:38.291Z,19.83
2022-11-02T07:28:05.676Z,25.83
2022-11-02T07:30:35.005Z,22.07
2022-11-02T07:33:02.754Z,22.40
2022-11-02T07:35:30.703Z,21.53
2022-11-02T07:38:00.393Z,20.93
2022-11-02T07:40:29.080Z,23.37
2022-11-02T07:42:57.742Z,21.23
2022-11-02T07:45:25.704Z,20.37
2022-11-02T07:47:53.403Z,21.67
2022-11-02T07:50:22.901Z,17.50
2022-11-02T07:52:52.505Z,21.33
2022-11-02T07:55:25.382Z,21.80
2022-11-02T07:58:04.378Z,17.47
2022-11-02T08:00:34.695Z,19.97
2022-11-02T08:03:03.996Z,19.20
2022-11-02T08:05:36.378Z,16.57
2022-11-02T08:08:16.844Z,20.93
2022-11-02T08:10:45.292Z,14.97
2022-11-02T08:13:15.345Z,18.77
2022-11-02T08:15:42.783Z,14.87
2022-11-02T08:18:24.616Z,12.87
2022-11-02T08:20:54.245Z,12.17
2022-11-02T08:23:23.363Z,11.40
2022-11-02T08:25:52.229Z,14.73
2022-11-02T08:28:22.929Z,12.57
2022-11-02T08:30:50.262Z,12.67
2022-11-02T08:33:19.186Z,11.03
2022-11-02T08:35:48.045Z,10.73
2022-11-02T08:38:16.356Z,12.30
2022-11-02T08:40:45.361Z,8.50
2022-11-02T08:43:14.844Z,13.07
2022-11-02T08:46:14.992Z,34.57
2022-11-02T08:48:32.049Z,11.03
2022-11-02T08:50:59.431Z,8.57
2022-11-02T08:53:26.788Z,10.50
2022-11-02T08:55:54.148Z,9.77
2022-11-02T08:58:21.352Z,10.83
2022-11-02T09:00:49.153Z,7.37
2022-11-02T09:03:21.922Z,11.27
2022-11-02T09:05:58.132Z,13.80
2022-11-02T09:08:26.569Z,8.30
2022-11-02T09:10:54.106Z,10.25
2022-11-02T09:13:25.726Z,8.00
2022-11-02T09:15:55.840Z,7.18
2022-11-02T09:18:24.187Z,9.88
2022-11-02T09:20:51.917Z,6.35
2022-11-02T09:23:20.963Z,7.05
2022-11-02T09:25:49.201Z,5.65
2022-11-02T09:28:17.966Z,7.15
2022-11-02T09:30:46.090Z,6.60
2022-11-02T09:33:13.947Z,6.20
2022-11-02T09:35:46.881Z,7.43
2022-11-02T09:38:16.740Z,8.43
2022-11-02T09:40:55.948Z,6.50
2022-11-02T09:43:47.224Z,5.88
2022-11-02T09:46:24.920Z,4.20
2022-11-02T09:49:00.269Z,5.05
2022-11-02T09:51:52.882Z,6.77
2022-11-02T09:54:23.851Z,6.27
2022-11-02T09:56:52.735Z,6.63
2022-11-02T09:59:22.988Z,7.33
2022-11-02T10:02:16.675Z,5.77
2022-11-02T10:04:58.805Z,6.57
2022-11-02T10:08:06.704Z,5.55
2022-11-02T10:10:46.950Z,5.55
2022-11-02T10:13:44.669Z,5.72
2022-11-02T10:16:22.789Z,11.68
2022-11-02T10:18:54.400Z,7.88
2022-11-02T10:21:27.175Z,3.00
2022-11-02T10:23:56.241Z,5.75
2022-11-02T10:26:33.689Z,4.25
2022-11-02T10:29:24.026Z,9.13
2022-11-02T10:31:51.344Z,4.35
2022-11-02T10:34:26.183Z,21.52
2022-11-02T10:37:21.357Z,3.90
2022-11-02T10:40:09.049Z,6.25
2022-11-02T10:43:05.164Z,6.45
2022-11-02T10:45:53.970Z,5.22
2022-11-02T10:48:41.631Z,4.65
2022-11-02T10:51:17.944Z,4.53
2022-11-02T10:53:48.249Z,8.93
2022-11-02T10:56:16.093Z,8.90
2022-11-02T10:59:09.502Z,7.13
2022-11-02T11:01:36.860Z,5.80
2022-11-02T11:04:24.707Z,6.60
2022-11-02T11:06:52.369Z,6.03
2022-11-02T11:09:19.873Z,7.60
2022-11-02T11:12:35.196Z,8.07
2022-11-02T11:20:43.035Z,6.47
2022-11-02T11:23:21.584Z,6.37
2022-11-02T11:26:04.017Z,7.37
2022-11-02T11:28:43.435Z,7.03
2022-11-02T11:31:16.825Z,8.03
2022-11-02T11:33:44.125Z,6.50
2022-11-02T11:36:20.316Z,6.53
2022-11-02T11:38:50.021Z,6.43
2022-11-02T11:41:18.911Z,6.90
2022-11-02T11:43:47.760Z,6.47
2022-11-02T11:46:16.606Z,4.17
2022-11-02T11:48:47.447Z,7.67
2022-11-02T11:51:25.526Z,4.77
2022-11-02T11:54:15.644Z,6.80
2022-11-02T11:56:43.061Z,5.77
2022-11-02T11:59:29.125Z,5.43
2022-11-02T12:02:04.235Z,5.73
2022-11-02T12:04:36.748Z,7.93
2022-11-02T12:07:56.151Z,10.37
2022-11-02T12:11:14.946Z,5.07
2022-11-02T12:14:12.282Z,22.30
2022-11-02T12:17:04.779Z,5.97
2022-11-02T12:19:50.235Z,7.22
2022-11-02T12:22:38.138Z,6.55
2022-11-02T12:25:16.586Z,6.90
2022-11-02T12:28:04.490Z,18.27
2022-11-02T12:30:54.690Z,17.02
2022-11-02T12:33:41.027Z,9.68
2022-11-02T12:36:26.322Z,6.03
2022-11-02T12:39:09.975Z,7.35
2022-11-02T12:41:39.881Z,5.97
2022-11-02T12:44:27.684Z,8.98
2022-11-02T12:47:20.868Z,5.00
2022-11-02T12:50:00.869Z,6.95
2022-11-02T12:52:28.237Z,4.55
2022-11-02T12:54:59.039Z,5.35
2022-11-02T12:57:29.959Z,7.88
2022-11-02T13:00:04.154Z,4.70
2022-11-02T13:02:43.722Z,8.30
2022-11-02T13:05:22.137Z,4.85
2022-11-02T13:07:59.363Z,4.10
2022-11-02T13:10:57.786Z,7.68
2022-11-02T13:13:34.753Z,5.25
2022-11-02T13:16:05.181Z,10.13
2022-11-02T13:18:42.061Z,3.88
2022-11-02T13:21:13.417Z,4.35
2022-11-02T13:23:46.611Z,4.65
2022-11-02T13:26:41.794Z,4.38
2022-11-02T13:29:35.998Z,10.25
2022-11-02T13:32:09.197Z,7.75
2022-11-02T13:34:44.448Z,5.63
2022-11-02T13:37:40.034Z,5.75
2022-11-02T13:40:21.548Z,4.95
2022-11-02T13:43:08.215Z,6.50
2022-11-02T13:45:47.667Z,5.47
2022-11-02T13:48:21.077Z,4.60
2022-11-02T13:50:52.458Z,6.97
2022-11-02T13:53:34.096Z,5.55
2022-11-02T13:56:10.351Z,14.02
2022-11-02T13:58:49.278Z,5.88
2022-11-02T14:01:19.675Z,5.83
2022-11-02T14:04:01.701Z,4.57
2022-11-02T14:06:32.171Z,9.37
2022-11-02T14:09:09.303Z,6.73
2022-11-02T14:11:47.945Z,7.07
2022-11-02T14:14:25.464Z,6.00
2022-11-02T14:16:53.353Z,9.23
2022-11-02T14:19:21.082Z,8.27
2022-11-02T14:21:51.453Z,9.70
2022-11-02T14:24:36.656Z,6.17
2022-11-02T14:27:25.602Z,6.20
2022-11-02T14:29:55.415Z,7.20
2022-11-02T14:32:35.012Z,7.73
2022-11-02T14:35:36.015Z,6.27
2022-11-02T14:38:06.332Z,7.90
2022-11-02T14:40:49.315Z,8.03
2022-11-02T14:43:26.037Z,8.40
2022-11-02T14:46:09.365Z,7.67
2022-11-02T14:49:04.761Z,29.50
2022-11-02T14:51:34.313Z,23.90
2022-11-02T14:54:29.594Z,14.50
2022-11-02T14:57:20.999Z,13.47
2022-11-02T14:59:52.598Z,10.77
2022-11-02T15:02:30.540Z,11.47
2022-11-02T15:05:04.447Z,8.73
2022-11-02T15:07:40.735Z,8.57
2022-11-02T15:10:16.823Z,9.17
2022-11-02T15:12:46.086Z,10.43
2022-11-02T15:15:38.159Z,8.20
2022-11-02T15:18:23.055Z,9.50
2022-11-02T15:21:12.177Z,11.50
2022-11-02T15:23:55.778Z,8.80
2022-11-02T15:26:47.890Z,8.27
2022-11-02T15:29:23.253Z,8.03
2022-11-02T15:31:58.897Z,10.67
2022-11-02T15:34:51.961Z,33.77
2022-11-02T15:37:23.684Z,190.43
2022-11-02T15:39:53.767Z,45.23
2022-11-02T15:42:38.420Z,23.40
2022-11-02T15:45:33.895Z,31.87
2022-11-02T15:48:12.240Z,22.53
2022-11-02T15:51:17.684Z,30.57
2022-11-02T15:53:50.456Z,11.20
2022-11-02T15:56:33.471Z,7.50
2022-11-02T15:59:04.062Z,10.83
2022-11-02T16:01:31.603Z,7.70
2022-11-02T16:04:02.875Z,9.23
2022-11-02T16:06:32.882Z,10.03
2022-11-02T16:09:04.600Z,8.40
2022-11-02T16:11:32.326Z,14.47
2022-11-02T16:14:18.830Z,14.57
2022-11-02T16:16:50.676Z,15.27
2022-11-02T16:19:22.038Z,12.47
2022-11-02T16:21:50.491Z,12.23
2022-11-02T16:24:18.839Z,10.63
2022-11-02T16:26:47.483Z,9.87
2022-11-02T16:29:48.301Z,10.60
2022-11-02T16:32:15.910Z,7.50
2022-11-02T16:34:44.276Z,10.87
2022-11-02T16:37:17.581Z,16.17
2022-11-02T16:39:47.270Z,13.87
2022-11-02T16:42:23.101Z,12.00
2022-11-02T16:44:59.398Z,9.43
2022-11-02T16:47:37.152Z,10.40
2022-11-02T16:50:19.187Z,10.70
2022-11-02T16:53:03.223Z,6.40
2022-11-02T16:55:44.442Z,16.80
2022-11-02T16:58:22.120Z,11.53
2022-11-02T17:01:06.018Z,11.83
2022-11-02T17:03:34.909Z,15.30
2022-11-02T17:06:06.614Z,9.57
2022-11-02T17:08:55.972Z,9.47
2022-11-02T17:11:23.732Z,9.73
2022-11-02T17:13:57.214Z,15.10
2022-11-02T17:16:24.489Z,10.67
2022-11-02T17:18:51.943Z,10.30
2022-11-02T17:21:24.813Z,13.77
2022-11-02T17:23:53.477Z,10.57
2022-11-02T17:26:24.489Z,10.87
2022-11-02T17:28:53.087Z,9.43
2022-11-02T17:31:24.542Z,11.17
2022-11-02T17:33:52.758Z,12.13
2022-11-02T17:36:20.648Z,8.80
2022-11-02T17:38:48.078Z,11.37
2022-11-02T17:41:37.885Z,8.13
2022-11-02T17:44:15.673Z,13.33
2022-11-02T17:46:45.779Z,17.90
2022-11-02T17:49:13.657Z,7.17
2022-11-02T17:51:42.133Z,13.33
2022-11-02T17:54:14.709Z,27.70
2022-11-02T17:56:42.174Z,16.17
2022-11-02T17:59:09.480Z,9.77
2022-11-02T18:01:37.176Z,10.33
2022-11-02T18:04:04.759Z,7.97
2022-11-02T18:06:31.982Z,9.47
2022-11-02T18:09:11.440Z,12.90
2022-11-02T18:11:38.727Z,9.50
2022-11-02T18:14:06.251Z,12.17
2022-11-02T18:16:33.717Z,10.20
2022-11-02T18:19:01.042Z,14.23
2022-11-02T18:21:28.533Z,13.63
2022-11-02T18:23:55.960Z,10.60
2022-11-02T18:26:23.869Z,13.07
2022-11-02T18:28:52.021Z,8.00
2022-11-02T18:31:19.470Z,9.80
2022-11-02T18:33:47.859Z,11.70
2022-11-02T18:36:15.700Z,9.63
2022-11-02T18:38:43.028Z,8.53
2022-11-02T18:41:29.958Z,8.63
2022-11-02T18:44:04.174Z,10.73
2022-11-02T18:46:35.080Z,9.17
2022-11-02T18:49:02.562Z,10.80
2022-11-02T18:51:29.936Z,11.50
2022-11-02T18:54:02.772Z,11.67
2022-11-02T18:56:31.493Z,12.77
2022-11-02T18:58:59.132Z,11.63
2022-11-02T19:01:26.946Z,11.57
2022-11-02T19:03:57.681Z,8.03
2022-11-02T19:06:45.951Z,10.37
2022-11-02T19:09:20.923Z,15.33
2022-11-02T19:12:04.760Z,7.97
2022-11-02T19:14:35.808Z,12.17
2022-11-02T19:17:03.706Z,9.53
2022-11-02T19:19:31.471Z,14.23
2022-11-02T19:21:59.617Z,12.63
2022-11-02T19:24:27.473Z,9.90
2022-11-02T19:26:56.446Z,12.57
2022-11-02T19:29:24.454Z,9.70
2022-11-02T19:31:51.741Z,8.60
2022-11-02T19:34:19.067Z,9.33
2022-11-02T19:36:46.803Z,10.80
2022-11-02T19:39:14.460Z,13.33
2022-11-02T19:41:41.748Z,12.00
2022-11-02T19:44:09.562Z,17.03
2022-11-02T19:46:36.979Z,25.03
2022-11-02T19:49:04.470Z,18.33
2022-11-02T19:51:32.464Z,48.57
2022-11-02T19:54:01.844Z,85.73
2022-11-02T19:56:32.672Z,103.83
2022-11-02T19:59:00.503Z,82.10
2022-11-02T20:01:32.327Z,96.57
2022-11-02T20:04:00.300Z,64.47
2022-11-02T20:06:31.973Z,66.03
2022-11-02T20:09:01.972Z,94.03
2022-11-02T20:11:29.836Z,163.87
2022-11-02T20:14:02.083Z,142.33
2022-11-02T20:16:30.083Z,69.20
2022-11-02T20:18:59.648Z,45.77
2022-11-02T20:21:34.396Z,56.10
2022-11-02T20:24:02.838Z,41.73
2022-11-02T20:26:32.939Z,39.33
2022-11-02T20:29:01.973Z,41.63
2022-11-02T20:31:35.860Z,33.83
2022-11-02T20:34:04.845Z,35.20
2022-11-02T20:36:32.519Z,50.60
2022-11-02T20:38:59.973Z,69.50
2022-11-02T20:41:28.267Z,62.80
2022-11-02T20:43:56.189Z,150.33
2022-11-02T20:46:42.440Z,153.63
2022-11-02T20:49:21.136Z,126.10
2022-11-02T20:51:53.212Z,198.77
2022-11-02T20:54:21.895Z,175.57
2022-11-02T20:56:50.754Z,257.03
2022-11-02T20:59:18.875Z,192.77
2022-11-02T21:01:46.330Z,146.97
2022-11-02T21:04:19.725Z,132.73
2022-11-02T21:06:49.489Z,76.23
2022-11-02T21:09:17.399Z,66.40
2022-11-02T21:12:03.056Z,40.70
2022-11-02T21:14:30.475Z,35.97
2022-11-02T21:16:58.073Z,37.47
2022-11-02T21:19:25.373Z,40.87
2022-11-02T21:21:59.095Z,38.00
2022-11-02T21:24:28.291Z,40.43
2022-11-02T21:26:55.550Z,32.23
2022-11-02T21:29:23.056Z,40.00
2022-11-02T21:31:50.713Z,33.37
2022-11-02T21:34:18.265Z,33.47
2022-11-02T21:36:47.433Z,32.13
2022-11-02T21:39:15.102Z,29.03
2022-11-02T21:41:42.359Z,33.40
2022-11-02T21:44:09.899Z,23.97
2022-11-02T21:46:37.525Z,25.50
2022-11-02T21:49:05.046Z,20.57
2022-11-02T21:51:32.371Z,22.17
2022-11-02T21:53:59.867Z,21.97
2022-11-02T21:56:28.588Z,16.07
2022-11-02T21:58:56.388Z,15.87
2022-11-02T22:01:47.379Z,15.90
2022-11-02T22:04:32.251Z,16.63
2022-11-02T22:07:01.079Z,14.63
2022-11-02T22:09:29.254Z,19.33
2022-11-02T22:12:15.882Z,33.23
2022-11-02T22:14:45.364Z,43.27
2022-11-02T22:17:28.397Z,30.40
2022-11-02T22:20:06.397Z,28.07
2022-11-02T22:22:33.709Z,32.13
2022-11-02T22:25:00.982Z,33.17
2022-11-02T22:27:28.242Z,29.27
2022-11-02T22:29:55.573Z,32.33
2022-11-02T22:32:23.039Z,50.00
2022-11-02T22:34:50.290Z,42.53
2022-11-02T22:37:36.422Z,41.27
2022-11-02T22:40:04.166Z,32.13
2022-11-02T22:42:31.510Z,33.20
2022-11-02T22:45:01.344Z,28.27
2022-11-02T22:47:28.585Z,30.60
2022-11-02T22:49:55.815Z,26.60
2022-11-02T22:52:24.344Z,21.93
2022-11-02T22:54:52.097Z,31.60
2022-11-02T22:57:19.840Z,31.97
2022-11-02T22:59:47.305Z,28.90
2022-11-02T23:02:14.921Z,32.47
2022-11-02T23:04:42.209Z,33.40
2022-11-02T23:07:11.004Z,43.03
2022-11-02T23:09:38.556Z,34.17
2022-11-02T23:12:06.015Z,24.73
2022-11-02T23:14:33.316Z,24.77
2022-11-02T23:17:00.814Z,40.50
2022-11-02T23:19:31.274Z,19.03
2022-11-02T23:22:30.303Z,11.93
2022-11-02T23:25:12.321Z,15.03
2022-11-02T23:28:14.899Z,9.97
2022-11-02T23:31:01.913Z,9.63
2022-11-02T23:33:32.928Z,8.53
2022-11-02T23:36:15.654Z,12.77
2022-11-02T23:39:06.935Z,19.40
2022-11-02T23:41:38.350Z,17.50
2022-11-02T23:44:12.685Z,23.10
2022-11-02T23:46:41.547Z,23.13
2022-11-02T23:49:13.520Z,28.83
2022-11-02T23:51:59.833Z,35.53
2022-11-02T23:54:45.920Z,43.20
2022-11-02T23:57:13.788Z,39.00
2022-11-02T23:59:41.352Z,29.83
